createdAt,value
2018-06-25T00:00:01.380Z,97.23
2018-06-25T00:01:01.365Z,97.61
2018-06-25T00:02:01.355Z,97.61
2018-06-25T00:03:01.334Z,97.61
2018-06-25T00:04:01.316Z,97.42
2018-06-25T00:05:01.299Z,97.33
2018-06-25T00:06:01.282Z,96.94
2018-06-25T00:07:01.270Z,96.56
2018-06-25T00:08:01.251Z,96.18
2018-06-25T00:09:01.233Z,96.37
2018-06-25T00:10:01.218Z,96.08
2018-06-25T00:11:01.199Z,95.70
2018-06-25T00:12:01.184Z,95.89
2018-06-25T00:13:01.170Z,96.37
2018-06-25T00:14:01.158Z,95.41
2018-06-25T00:15:01.136Z,95.12
2018-06-25T00:16:01.116Z,96.47
2018-06-25T00:17:01.101Z,96.27
2018-06-25T00:18:01.091Z,96.66
2018-06-25T00:19:01.069Z,95.70
2018-06-25T00:20:01.059Z,95.79
2018-06-25T00:21:01.038Z,95.79
2018-06-25T00:22:01.019Z,95.22
2018-06-25T00:23:01.000Z,95.79
2018-06-25T00:24:00.985Z,95.79
2018-06-25T00:25:00.968Z,95.70
2018-06-25T00:26:00.952Z,95.79
2018-06-25T00:27:00.934Z,96.37
2018-06-25T00:28:00.918Z,96.18
2018-06-25T00:29:00.902Z,96.47
2018-06-25T00:30:00.886Z,96.18
2018-06-25T00:31:00.868Z,95.98
2018-06-25T00:32:00.856Z,96.37
2018-06-25T00:33:00.847Z,96.37
2018-06-25T00:34:00.819Z,96.51
2018-06-25T00:35:00.802Z,95.65
2018-06-25T00:36:00.785Z,95.75
2018-06-25T00:37:00.768Z,96.13
2018-06-25T00:38:00.755Z,96.32
2018-06-25T00:39:00.734Z,95.36
2018-06-25T00:40:00.720Z,95.75
2018-06-25T00:41:00.702Z,96.03
2018-06-25T00:42:00.686Z,96.42
2018-06-25T00:43:00.669Z,95.46
2018-06-25T00:44:00.657Z,96.13
2018-06-25T00:45:00.639Z,95.65
2018-06-25T00:46:00.617Z,94.98
2018-06-25T00:47:00.603Z,95.75
2018-06-25T00:48:00.584Z,95.27
2018-06-25T00:49:00.565Z,95.56
2018-06-25T00:50:00.551Z,95.36
2018-06-25T00:51:00.535Z,95.36
2018-06-25T00:52:00.519Z,95.27
2018-06-25T00:53:00.500Z,94.98
2018-06-25T00:54:00.489Z,95.61
2018-06-25T00:55:00.474Z,95.32
2018-06-25T00:56:00.451Z,95.79
2018-06-25T00:57:00.433Z,95.70
2018-06-25T00:58:00.416Z,95.12
2018-06-25T00:59:00.401Z,95.32
2018-06-25T01:00:00.381Z,95.41
2018-06-25T01:01:00.369Z,95.70
2018-06-25T01:02:00.349Z,95.51
2018-06-25T01:03:00.331Z,94.93
2018-06-25T01:04:00.315Z,95.79
2018-06-25T01:05:00.299Z,96.47
2018-06-25T01:06:00.290Z,96.18
2018-06-25T01:07:00.265Z,96.84
2018-06-25T01:08:00.246Z,97.33
2018-06-25T01:09:00.231Z,97.99
2018-06-25T01:10:00.213Z,99.04
2018-06-25T01:11:00.198Z,99.33
2018-06-25T01:12:00.178Z,99.33
2018-06-25T01:13:00.164Z,99.14
2018-06-25T01:14:00.146Z,99.99
2018-06-25T01:15:00.127Z,99.99
2018-06-25T01:16:00.113Z,99.99
2018-06-25T01:17:00.102Z,99.99
2018-06-25T01:18:00.078Z,99.99
2018-06-25T01:19:00.061Z,99.99
2018-06-25T01:20:00.044Z,99.99
2018-06-25T01:21:00.029Z,99.99
2018-06-25T01:22:00.013Z,99.99
2018-06-25T01:22:59.992Z,99.99
2018-06-25T01:23:59.975Z,99.99
2018-06-25T01:24:59.958Z,99.99
2018-06-25T01:25:59.941Z,99.76
2018-06-25T01:26:59.924Z,99.57
2018-06-25T01:27:59.906Z,99.76
2018-06-25T01:28:59.893Z,99.96
2018-06-25T01:29:59.872Z,99.86
2018-06-25T01:30:59.855Z,99.29
2018-06-25T01:31:59.839Z,99.29
2018-06-25T01:32:59.821Z,98.90
2018-06-25T01:33:59.813Z,98.61
2018-06-25T01:34:59.796Z,99.10
2018-06-25T01:35:59.772Z,98.81
2018-06-25T01:36:59.755Z,98.95
2018-06-25T01:37:59.738Z,98.81
2018-06-25T01:38:59.719Z,98.47
2018-06-25T01:39:59.702Z,99.19
2018-06-25T01:40:59.687Z,98.57
2018-06-25T01:41:59.670Z,98.19
2018-06-25T01:42:59.656Z,98.28
2018-06-25T01:43:59.636Z,97.13
2018-06-25T01:44:59.621Z,97.61
2018-06-25T01:45:59.603Z,97.42
2018-06-25T01:46:59.587Z,97.42
2018-06-25T01:47:59.572Z,97.33
2018-06-25T01:48:59.553Z,97.04
2018-06-25T01:49:59.543Z,97.23
2018-06-25T01:50:59.518Z,97.23
2018-06-25T01:51:59.501Z,97.42
2018-06-25T01:52:59.487Z,97.42
2018-06-25T01:53:59.468Z,97.04
2018-06-25T01:54:59.458Z,97.23
2018-06-25T01:55:59.432Z,97.04
2018-06-25T01:56:59.418Z,97.23
2018-06-25T01:57:59.401Z,96.27
2018-06-25T01:58:59.383Z,96.27
2018-06-25T01:59:59.366Z,96.47
2018-06-25T02:00:59.351Z,95.70
2018-06-25T02:01:59.333Z,96.18
2018-06-25T02:02:59.322Z,96.47
2018-06-25T02:03:59.298Z,96.27
2018-06-25T02:04:59.282Z,96.37
2018-06-25T02:05:59.264Z,96.18
2018-06-25T02:06:59.248Z,95.98
2018-06-25T02:07:59.231Z,96.27
2018-06-25T02:08:59.219Z,96.18
2018-06-25T02:09:59.197Z,96.66
2018-06-25T02:10:59.184Z,95.98
2018-06-25T02:11:59.164Z,95.61
2018-06-25T02:12:59.163Z,96.47
2018-06-25T02:13:59.133Z,95.79
2018-06-25T02:14:59.114Z,95.79
2018-06-25T02:15:59.100Z,95.75
2018-06-25T02:16:59.084Z,95.65
2018-06-25T02:17:59.064Z,95.65
2018-06-25T02:18:59.049Z,96.22
2018-06-25T02:19:59.030Z,96.42
2018-06-25T02:20:59.013Z,96.32
2018-06-25T02:21:58.995Z,96.37
2018-06-25T02:22:58.980Z,96.32
2018-06-25T02:23:58.967Z,96.32
2018-06-25T02:24:58.948Z,96.18
2018-06-25T02:25:58.957Z,95.98
2018-06-25T02:26:58.910Z,96.37
2018-06-25T02:27:58.904Z,96.37
2018-06-25T02:28:58.877Z,96.32
2018-06-25T02:29:58.869Z,96.13
2018-06-25T02:30:58.843Z,95.36
2018-06-25T02:31:58.826Z,95.27
2018-06-25T02:32:58.897Z,95.79
2018-06-25T02:33:58.794Z,95.79
2018-06-25T02:34:58.775Z,96.13
2018-06-25T02:35:58.761Z,96.22
2018-06-25T02:36:58.746Z,96.32
2018-06-25T02:37:58.729Z,96.42
2018-06-25T02:38:58.716Z,96.32
2018-06-25T02:39:58.699Z,95.94
2018-06-25T02:40:58.673Z,95.94
2018-06-25T02:41:58.657Z,96.42
2018-06-25T02:42:58.638Z,96.32
2018-06-25T02:43:58.639Z,95.65
2018-06-25T02:44:58.606Z,95.65
2018-06-25T02:45:58.589Z,96.51
2018-06-25T02:46:58.576Z,96.32
2018-06-25T02:47:58.554Z,96.51
2018-06-25T02:48:58.538Z,95.75
2018-06-25T02:49:58.528Z,95.94
2018-06-25T02:50:58.505Z,95.94
2018-06-25T02:51:58.489Z,95.75
2018-06-25T02:52:58.473Z,95.75
2018-06-25T02:53:58.456Z,95.36
2018-06-25T02:54:58.436Z,95.65
2018-06-25T02:55:58.420Z,95.65
2018-06-25T02:56:58.458Z,95.65
2018-06-25T02:57:58.387Z,95.36
2018-06-25T02:58:58.369Z,95.65
2018-06-25T02:59:58.353Z,95.65
2018-06-25T03:00:58.335Z,95.75
2018-06-25T03:01:58.320Z,95.84
2018-06-25T03:02:58.301Z,95.94
2018-06-25T03:03:58.288Z,95.56
2018-06-25T03:04:58.271Z,95.46
2018-06-25T03:05:58.268Z,95.65
2018-06-25T03:06:58.239Z,95.84
2018-06-25T03:07:58.218Z,95.46
2018-06-25T03:08:58.202Z,95.41
2018-06-25T03:09:58.186Z,95.65
2018-06-25T03:10:58.166Z,95.84
2018-06-25T03:11:58.151Z,95.89
2018-06-25T03:12:58.133Z,95.89
2018-06-25T03:13:58.118Z,95.56
2018-06-25T03:14:58.100Z,95.46
2018-06-25T03:15:58.084Z,95.79
2018-06-25T03:16:58.068Z,95.75
2018-06-25T03:17:58.058Z,95.75
2018-06-25T03:18:58.035Z,95.61
2018-06-25T03:19:58.015Z,95.27
2018-06-25T03:20:58.000Z,95.17
2018-06-25T03:21:57.985Z,95.27
2018-06-25T03:22:57.964Z,95.17
2018-06-25T03:23:57.951Z,95.94
2018-06-25T03:24:57.933Z,95.65
2018-06-25T03:25:57.916Z,95.61
2018-06-25T03:26:57.900Z,95.31
2018-06-25T03:27:57.882Z,95.61
2018-06-25T03:28:57.874Z,94.84
2018-06-25T03:29:57.851Z,95.51
2018-06-25T03:30:57.833Z,95.12
2018-06-25T03:31:57.819Z,95.22
2018-06-25T03:32:57.801Z,95.41
2018-06-25T03:33:57.784Z,95.03
2018-06-25T03:34:57.767Z,95.22
2018-06-25T03:35:57.803Z,95.31
2018-06-25T03:36:57.735Z,94.45
2018-06-25T03:37:57.726Z,94.45
2018-06-25T03:38:57.701Z,94.45
2018-06-25T03:39:57.682Z,94.65
2018-06-25T03:40:57.668Z,94.55
2018-06-25T03:41:57.654Z,94.65
2018-06-25T03:42:57.633Z,93.98
2018-06-25T03:43:57.616Z,94.17
2018-06-25T03:44:57.600Z,93.50
2018-06-25T03:45:57.585Z,94.17
2018-06-25T03:46:57.570Z,94.07
2018-06-25T03:47:57.550Z,94.07
2018-06-25T03:48:57.536Z,94.26
2018-06-25T03:49:57.517Z,94.17
2018-06-25T03:50:57.501Z,93.88
2018-06-25T03:51:57.484Z,93.98
2018-06-25T03:52:57.470Z,94.26
2018-06-25T03:53:57.452Z,94.45
2018-06-25T03:54:57.435Z,94.07
2018-06-25T03:55:57.418Z,93.88
2018-06-25T03:56:57.400Z,93.69
2018-06-25T03:57:57.383Z,93.50
2018-06-25T03:58:57.366Z,93.30
2018-06-25T03:59:57.352Z,93.88
2018-06-25T04:00:57.398Z,93.30
2018-06-25T04:01:57.320Z,93.98
2018-06-25T04:02:57.304Z,93.69
2018-06-25T04:03:57.287Z,93.69
2018-06-25T04:04:57.271Z,93.88
2018-06-25T04:05:57.257Z,93.30
2018-06-25T04:06:57.237Z,93.21
2018-06-25T04:07:57.222Z,93.45
2018-06-25T04:08:57.203Z,93.54
2018-06-25T04:09:57.194Z,93.35
2018-06-25T04:10:57.170Z,93.07
2018-06-25T04:11:57.153Z,93.35
2018-06-25T04:12:57.143Z,93.02
2018-06-25T04:13:57.124Z,93.16
2018-06-25T04:14:57.105Z,94.07
2018-06-25T04:15:57.089Z,93.35
2018-06-25T04:16:57.080Z,93.74
2018-06-25T04:17:57.059Z,93.35
2018-06-25T04:18:57.039Z,93.12
2018-06-25T04:19:57.024Z,93.16
2018-06-25T04:20:57.007Z,93.45
2018-06-25T04:21:56.992Z,93.07
2018-06-25T04:22:56.974Z,93.45
2018-06-25T04:23:56.958Z,93.64
2018-06-25T04:24:56.942Z,93.35
2018-06-25T04:25:56.926Z,93.26
2018-06-25T04:26:56.910Z,93.35
2018-06-25T04:27:56.893Z,92.87
2018-06-25T04:28:56.882Z,92.30
2018-06-25T04:29:56.862Z,93.07
2018-06-25T04:30:56.848Z,93.26
2018-06-25T04:31:56.828Z,93.16
2018-06-25T04:32:56.810Z,93.35
2018-06-25T04:33:56.797Z,93.54
2018-06-25T04:34:56.780Z,93.26
2018-06-25T04:35:56.765Z,93.64
2018-06-25T04:36:56.747Z,93.35
2018-06-25T04:37:56.756Z,93.35
2018-06-25T04:38:56.717Z,93.16
2018-06-25T04:39:56.701Z,93.26
2018-06-25T04:40:56.684Z,92.58
2018-06-25T04:41:56.667Z,92.49
2018-06-25T04:42:56.653Z,92.49
2018-06-25T04:43:56.639Z,92.01
2018-06-25T04:44:56.621Z,92.49
2018-06-25T04:45:56.606Z,91.53
2018-06-25T04:46:56.589Z,92.11
2018-06-25T04:47:56.573Z,91.92
2018-06-25T04:48:56.557Z,92.11
2018-06-25T04:49:56.542Z,91.72
2018-06-25T04:50:56.522Z,92.40
2018-06-25T04:51:56.508Z,92.40
2018-06-25T04:52:56.493Z,92.40
2018-06-25T04:53:56.478Z,92.49
2018-06-25T04:54:56.463Z,93.45
2018-06-25T04:55:56.444Z,93.64
2018-06-25T04:56:56.427Z,93.16
2018-06-25T04:57:56.411Z,93.35
2018-06-25T04:58:56.395Z,92.97
2018-06-25T04:59:56.380Z,92.97
2018-06-25T05:00:56.399Z,93.35
2018-06-25T05:01:56.349Z,93.16
2018-06-25T05:02:56.335Z,93.07
2018-06-25T05:03:56.317Z,92.58
2018-06-25T05:04:56.309Z,92.87
2018-06-25T05:05:56.285Z,93.07
2018-06-25T05:06:56.268Z,92.30
2018-06-25T05:07:56.251Z,93.26
2018-06-25T05:08:56.260Z,92.78
2018-06-25T05:09:56.224Z,92.97
2018-06-25T05:10:56.209Z,92.78
2018-06-25T05:11:56.187Z,92.68
2018-06-25T05:12:56.173Z,93.45
2018-06-25T05:13:56.158Z,92.97
2018-06-25T05:14:56.140Z,93.21
2018-06-25T05:15:56.126Z,93.02
2018-06-25T05:16:56.111Z,91.39
2018-06-25T05:17:56.095Z,90.81
2018-06-25T05:18:56.076Z,91.19
2018-06-25T05:19:56.061Z,91.00
2018-06-25T05:20:56.047Z,90.23
2018-06-25T05:21:56.031Z,90.72
2018-06-25T05:22:56.021Z,89.86
2018-06-25T05:23:55.999Z,89.86
2018-06-25T05:24:55.984Z,89.76
2018-06-25T05:25:55.972Z,89.28
2018-06-25T05:26:55.953Z,89.86
2018-06-25T05:27:55.939Z,88.90
2018-06-25T05:28:55.919Z,88.99
2018-06-25T05:29:55.910Z,88.84
2018-06-25T05:30:55.888Z,88.94
2018-06-25T05:31:55.874Z,88.65
2018-06-25T05:32:55.860Z,89.04
2018-06-25T05:33:55.843Z,88.84
2018-06-25T05:34:55.827Z,88.75
2018-06-25T05:35:55.816Z,87.79
2018-06-25T05:36:55.798Z,87.98
2018-06-25T05:37:55.784Z,87.79
2018-06-25T05:38:55.770Z,88.37
2018-06-25T05:39:55.749Z,88.27
2018-06-25T05:40:55.741Z,89.13
2018-06-25T05:41:55.720Z,88.94
2018-06-25T05:42:55.707Z,88.37
2018-06-25T05:43:55.691Z,87.64
2018-06-25T05:44:55.677Z,87.45
2018-06-25T05:45:55.664Z,87.45
2018-06-25T05:46:55.647Z,88.31
2018-06-25T05:47:55.633Z,87.74
2018-06-25T05:48:55.677Z,88.22
2018-06-25T05:49:55.599Z,88.02
2018-06-25T05:50:55.593Z,87.45
2018-06-25T05:51:55.568Z,87.55
2018-06-25T05:52:55.555Z,87.64
2018-06-25T05:53:55.539Z,87.26
2018-06-25T05:54:55.522Z,86.97
2018-06-25T05:55:55.509Z,88.02
2018-06-25T05:56:55.493Z,88.02
2018-06-25T05:57:55.478Z,87.55
2018-06-25T05:58:55.503Z,87.35
2018-06-25T05:59:55.448Z,88.02
2018-06-25T06:00:55.433Z,87.64
2018-06-25T06:01:55.419Z,86.68
2018-06-25T06:02:55.403Z,86.78
2018-06-25T06:03:55.395Z,87.07
2018-06-25T06:04:55.371Z,86.83
2018-06-25T06:05:55.358Z,87.21
2018-06-25T06:06:55.343Z,87.31
2018-06-25T06:07:55.326Z,87.60
2018-06-25T06:08:55.313Z,87.88
2018-06-25T06:09:55.300Z,87.98
2018-06-25T06:10:55.282Z,86.58
2018-06-25T06:11:55.269Z,86.49
2018-06-25T06:12:55.256Z,85.72
2018-06-25T06:13:55.250Z,84.86
2018-06-25T06:14:55.235Z,85.05
2018-06-25T06:15:55.208Z,85.10
2018-06-25T06:16:55.199Z,84.95
2018-06-25T06:17:55.180Z,83.18
2018-06-25T06:18:55.162Z,84.19
2018-06-25T06:19:55.150Z,84.86
2018-06-25T06:20:55.135Z,84.95
2018-06-25T06:21:55.120Z,84.95
2018-06-25T06:22:55.102Z,84.91
2018-06-25T06:23:55.091Z,85.28
2018-06-25T06:24:55.076Z,84.86
2018-06-25T06:25:55.068Z,85.72
2018-06-25T06:26:55.045Z,85.77
2018-06-25T06:27:55.030Z,85.15
2018-06-25T06:28:55.014Z,85.34
2018-06-25T06:29:55.001Z,84.86
2018-06-25T06:30:54.990Z,85.00
2018-06-25T06:31:54.969Z,84.71
2018-06-25T06:32:54.958Z,84.52
2018-06-25T06:33:54.943Z,84.04
2018-06-25T06:34:54.927Z,83.56
2018-06-25T06:35:54.911Z,83.85
2018-06-25T06:36:54.897Z,83.85
2018-06-25T06:37:54.882Z,83.85
2018-06-25T06:38:54.867Z,83.37
2018-06-25T06:39:54.900Z,83.94
2018-06-25T06:40:54.842Z,84.04
2018-06-25T06:41:54.824Z,83.56
2018-06-25T06:42:54.810Z,83.85
2018-06-25T06:43:54.797Z,83.94
2018-06-25T06:44:54.840Z,84.04
2018-06-25T06:45:54.767Z,83.56
2018-06-25T06:46:54.754Z,83.94
2018-06-25T06:47:54.740Z,84.04
2018-06-25T06:48:54.728Z,84.14
2018-06-25T06:49:54.709Z,85.04
2018-06-25T06:50:54.693Z,83.80
2018-06-25T06:51:54.679Z,83.80
2018-06-25T06:52:54.669Z,83.80
2018-06-25T06:53:54.651Z,82.74
2018-06-25T06:54:54.639Z,83.85
2018-06-25T06:55:54.623Z,83.18
2018-06-25T06:56:54.607Z,82.98
2018-06-25T06:57:54.595Z,83.18
2018-06-25T06:58:54.591Z,84.04
2018-06-25T06:59:54.567Z,83.75
2018-06-25T07:00:54.549Z,83.94
2018-06-25T07:01:54.538Z,85.10
2018-06-25T07:02:54.521Z,85.19
2018-06-25T07:03:54.509Z,84.33
2018-06-25T07:04:54.493Z,84.33
2018-06-25T07:05:54.478Z,83.47
2018-06-25T07:06:54.464Z,83.75
2018-06-25T07:07:54.449Z,84.04
2018-06-25T07:08:54.435Z,82.70
2018-06-25T07:09:54.421Z,82.98
2018-06-25T07:10:54.415Z,82.51
2018-06-25T07:11:54.394Z,83.75
2018-06-25T07:12:54.376Z,82.98
2018-06-25T07:13:54.366Z,82.89
2018-06-25T07:14:54.347Z,83.80
2018-06-25T07:15:54.341Z,83.12
2018-06-25T07:16:54.321Z,82.16
2018-06-25T07:17:54.309Z,79.52
2018-06-25T07:18:54.293Z,78.17
2018-06-25T07:19:54.281Z,77.88
2018-06-25T07:20:54.268Z,78.27
2018-06-25T07:21:54.254Z,78.84
2018-06-25T07:22:54.238Z,78.27
2018-06-25T07:23:54.223Z,78.59
2018-06-25T07:24:54.230Z,78.59
2018-06-25T07:25:54.197Z,78.21
2018-06-25T07:26:54.182Z,78.98
2018-06-25T07:27:54.168Z,78.40
2018-06-25T07:28:54.188Z,79.46
2018-06-25T07:29:54.142Z,80.13
2018-06-25T07:30:54.126Z,79.17
2018-06-25T07:31:54.114Z,77.86
2018-06-25T07:32:54.101Z,77.96
2018-06-25T07:33:54.085Z,77.00
2018-06-25T07:34:54.072Z,77.38
2018-06-25T07:35:54.069Z,77.58
2018-06-25T07:36:54.046Z,78.06
2018-06-25T07:37:54.038Z,78.88
2018-06-25T07:38:54.018Z,78.78
2018-06-25T07:39:54.003Z,79.55
2018-06-25T07:40:53.996Z,79.75
2018-06-25T07:41:53.983Z,79.94
2018-06-25T07:42:53.968Z,78.50
2018-06-25T07:43:53.954Z,78.98
2018-06-25T07:44:53.942Z,80.22
2018-06-25T07:45:53.929Z,79.13
2018-06-25T07:46:53.916Z,80.38
2018-06-25T07:47:53.901Z,80.38
2018-06-25T07:48:53.893Z,80.28
2018-06-25T07:49:53.874Z,80.86
2018-06-25T07:50:53.864Z,81.15
2018-06-25T07:51:53.846Z,80.86
2018-06-25T07:52:53.840Z,80.66
2018-06-25T07:53:53.824Z,79.61
2018-06-25T07:54:53.828Z,79.71
2018-06-25T07:55:53.793Z,79.42
2018-06-25T07:56:53.789Z,79.71
2018-06-25T07:57:53.768Z,79.71
2018-06-25T07:58:53.754Z,79.71
2018-06-25T07:59:53.741Z,80.47
2018-06-25T08:00:53.729Z,80.24
2018-06-25T08:01:53.716Z,80.91
2018-06-25T08:02:53.711Z,81.78
2018-06-25T08:03:53.690Z,81.30
2018-06-25T08:04:53.677Z,81.59
2018-06-25T08:05:53.665Z,81.97
2018-06-25T08:06:53.667Z,82.54
2018-06-25T08:07:53.639Z,81.84
2018-06-25T08:08:53.625Z,82.60
2018-06-25T08:09:53.670Z,82.84
2018-06-25T08:10:53.598Z,81.87
2018-06-25T08:11:53.585Z,81.78
2018-06-25T08:12:53.583Z,82.07
2018-06-25T08:13:53.559Z,81.54
2018-06-25T08:14:53.543Z,81.93
2018-06-25T08:15:53.539Z,81.74
2018-06-25T08:16:53.518Z,81.93
2018-06-25T08:17:53.508Z,82.03
2018-06-25T08:18:53.491Z,83.08
2018-06-25T08:19:53.477Z,81.84
2018-06-25T08:20:53.464Z,81.97
2018-06-25T08:21:53.454Z,81.59
2018-06-25T08:22:53.439Z,81.87
2018-06-25T08:23:53.424Z,80.82
2018-06-25T08:24:53.410Z,81.78
2018-06-25T08:25:53.398Z,81.49
2018-06-25T08:26:53.386Z,81.30
2018-06-25T08:27:53.370Z,81.30
2018-06-25T08:28:53.361Z,81.49
2018-06-25T08:29:53.375Z,82.07
2018-06-25T08:30:53.332Z,82.07
2018-06-25T08:31:53.322Z,81.87
2018-06-25T08:32:53.304Z,81.74
2018-06-25T08:33:53.320Z,82.21
2018-06-25T08:34:53.275Z,81.74
2018-06-25T08:35:53.270Z,82.21
2018-06-25T08:36:53.275Z,83.08
2018-06-25T08:37:53.237Z,82.74
2018-06-25T08:38:53.227Z,81.10
2018-06-25T08:39:53.208Z,80.34
2018-06-25T08:40:53.196Z,81.10
2018-06-25T08:41:53.184Z,81.01
2018-06-25T08:42:53.169Z,81.01
2018-06-25T08:43:53.154Z,80.53
2018-06-25T08:44:53.141Z,80.53
2018-06-25T08:45:53.133Z,80.34
2018-06-25T08:46:53.113Z,79.96
2018-06-25T08:47:53.104Z,79.47
2018-06-25T08:48:53.089Z,80.43
2018-06-25T08:49:53.076Z,80.15
2018-06-25T08:50:53.064Z,80.15
2018-06-25T08:51:53.101Z,79.19
2018-06-25T08:52:53.041Z,80.82
2018-06-25T08:53:53.028Z,80.76
2018-06-25T08:54:53.007Z,79.61
2018-06-25T08:55:52.993Z,79.52
2018-06-25T08:56:53.028Z,79.38
2018-06-25T08:57:52.967Z,80.34
2018-06-25T08:58:52.955Z,80.05
2018-06-25T08:59:52.948Z,80.76
2018-06-25T09:00:52.925Z,80.38
2018-06-25T09:01:52.913Z,79.52
2018-06-25T09:02:52.899Z,79.22
2018-06-25T09:03:52.886Z,79.61
2018-06-25T09:04:52.915Z,79.03
2018-06-25T09:05:52.861Z,79.03
2018-06-25T09:06:52.847Z,78.36
2018-06-25T09:07:52.833Z,78.27
2018-06-25T09:08:52.821Z,77.50
2018-06-25T09:09:52.843Z,77.11
2018-06-25T09:10:52.794Z,76.96
2018-06-25T09:11:52.782Z,75.37
2018-06-25T09:12:52.769Z,74.98
2018-06-25T09:13:52.755Z,74.69
2018-06-25T09:14:52.744Z,73.92
2018-06-25T09:15:52.730Z,73.83
2018-06-25T09:16:52.717Z,74.60
2018-06-25T09:17:52.707Z,74.46
2018-06-25T09:18:52.694Z,74.65
2018-06-25T09:19:52.678Z,76.00
2018-06-25T09:20:52.667Z,75.94
2018-06-25T09:21:52.654Z,74.21
2018-06-25T09:22:52.641Z,73.57
2018-06-25T09:23:52.627Z,73.32
2018-06-25T09:24:52.613Z,70.98
2018-06-25T09:25:52.602Z,69.16
2018-06-25T09:26:52.591Z,65.91
2018-06-25T09:27:52.611Z,65.59
2018-06-25T09:28:52.567Z,62.76
2018-06-25T09:29:52.558Z,62.79
2018-06-25T09:30:52.545Z,59.25
2018-06-25T09:31:52.536Z,58.93
2018-06-25T09:32:52.522Z,58.50
2018-06-25T09:33:52.512Z,58.28
2018-06-25T09:34:52.503Z,60.28
2018-06-25T09:35:52.492Z,61.70
2018-06-25T09:36:52.483Z,61.89
2018-06-25T09:37:52.481Z,61.28
2018-06-25T09:38:52.461Z,62.05
2018-06-25T09:39:52.453Z,61.96
2018-06-25T09:40:52.526Z,61.96
2018-06-25T09:41:52.436Z,61.93
2018-06-25T09:42:52.475Z,61.02
2018-06-25T09:43:52.416Z,61.86
2018-06-25T09:44:52.406Z,61.09
2018-06-25T09:45:52.456Z,61.19
2018-06-25T09:46:52.406Z,60.99
2018-06-25T09:47:52.377Z,60.54
2018-06-25T09:48:52.371Z,58.93
2018-06-25T09:49:52.359Z,59.12
2018-06-25T09:50:52.350Z,59.38
2018-06-25T09:51:52.342Z,59.00
2018-06-25T09:52:52.332Z,59.09
2018-06-25T09:53:52.324Z,58.21
2018-06-25T09:54:52.378Z,56.24
2018-06-25T09:55:52.307Z,53.94
2018-06-25T09:56:52.298Z,54.27
2018-06-25T09:57:52.293Z,55.77
2018-06-25T09:58:52.282Z,57.67
2018-06-25T09:59:52.274Z,58.51
2018-06-25T10:00:52.268Z,58.94
2018-06-25T10:01:52.260Z,61.03
2018-06-25T10:02:52.252Z,61.71
2018-06-25T10:03:52.243Z,62.96
2018-06-25T10:04:52.236Z,61.80
2018-06-25T10:05:52.230Z,61.35
2018-06-25T10:06:52.266Z,59.31
2018-06-25T10:07:52.210Z,56.88
2018-06-25T10:08:52.204Z,53.43
2018-06-25T10:09:52.197Z,52.12
2018-06-25T10:10:52.196Z,51.09
2018-06-25T10:11:52.184Z,51.72
2018-06-25T10:12:52.176Z,53.04
2018-06-25T10:13:52.176Z,53.02
2018-06-25T10:14:52.160Z,52.95
2018-06-25T10:15:52.155Z,52.00
2018-06-25T10:16:52.150Z,52.06
2018-06-25T10:17:52.142Z,50.62
2018-06-25T10:18:52.141Z,50.02
2018-06-25T10:19:52.131Z,49.54
2018-06-25T10:20:52.125Z,50.77
2018-06-25T10:21:52.120Z,53.07
2018-06-25T10:22:52.148Z,52.00
2018-06-25T10:23:52.107Z,53.33
2018-06-25T10:24:52.104Z,53.69
2018-06-25T10:25:52.098Z,53.77
2018-06-25T10:26:52.090Z,52.18
2018-06-25T10:27:52.084Z,48.93
2018-06-25T10:28:52.078Z,48.58
2018-06-25T10:29:52.073Z,46.98
2018-06-25T10:30:52.068Z,44.01
2018-06-25T10:31:52.066Z,42.25
2018-06-25T10:32:52.060Z,44.13
2018-06-25T10:33:52.057Z,43.71
2018-06-25T10:34:52.115Z,43.40
2018-06-25T10:35:52.048Z,44.04
2018-06-25T10:36:52.042Z,44.58
2018-06-25T10:37:52.042Z,46.01
2018-06-25T10:38:52.041Z,47.81
2018-06-25T10:39:52.029Z,48.37
2018-06-25T10:40:52.033Z,49.61
2018-06-25T10:41:52.024Z,49.73
2018-06-25T10:42:52.016Z,49.66
2018-06-25T10:43:52.011Z,49.73
2018-06-25T10:44:52.010Z,50.31
2018-06-25T10:45:52.003Z,48.78
2018-06-25T10:46:52.000Z,47.38
2018-06-25T10:47:51.996Z,47.42
2018-06-25T10:48:51.989Z,44.43
2018-06-25T10:49:51.992Z,44.45
2018-06-25T10:50:51.982Z,44.18
2018-06-25T10:51:51.978Z,44.59
2018-06-25T10:52:51.975Z,42.47
2018-06-25T10:53:51.976Z,42.10
2018-06-25T10:54:51.971Z,41.89
2018-06-25T10:55:51.965Z,42.25
2018-06-25T10:56:51.966Z,43.99
2018-06-25T10:57:51.964Z,43.09
2018-06-25T10:58:51.958Z,43.34
2018-06-25T10:59:52.122Z,44.43
2018-06-25T11:00:51.949Z,44.51
2018-06-25T11:01:51.947Z,44.29
2018-06-25T11:02:51.946Z,44.97
2018-06-25T11:03:51.947Z,45.65
2018-06-25T11:04:51.935Z,45.43
2018-06-25T11:05:51.979Z,46.98
2018-06-25T11:06:51.942Z,45.61
2018-06-25T11:07:52.000Z,47.42
2018-06-25T11:08:51.924Z,48.76
2018-06-25T11:09:51.921Z,50.31
2018-06-25T11:10:51.915Z,49.75
2018-06-25T11:11:51.914Z,49.68
2018-06-25T11:12:52.010Z,47.93
2018-06-25T11:13:51.910Z,47.23
2018-06-25T11:14:51.906Z,47.69
2018-06-25T11:15:51.905Z,49.15
2018-06-25T11:16:51.896Z,49.73
2018-06-25T11:17:51.893Z,49.49
2018-06-25T11:18:51.886Z,48.42
2018-06-25T11:19:51.886Z,48.32
2018-06-25T11:20:51.884Z,47.18
2018-06-25T11:21:51.877Z,46.91
2018-06-25T11:22:51.873Z,47.20
2018-06-25T11:23:51.867Z,46.91
2018-06-25T11:24:51.866Z,46.06
2018-06-25T11:25:51.864Z,44.70
2018-06-25T11:26:51.908Z,44.55
2018-06-25T11:27:51.952Z,43.70
2018-06-25T11:28:51.851Z,43.48
2018-06-25T11:29:51.846Z,43.38
2018-06-25T11:30:51.842Z,42.94
2018-06-25T11:31:51.841Z,42.55
2018-06-25T11:32:51.837Z,41.89
2018-06-25T11:33:51.832Z,41.32
2018-06-25T11:34:51.832Z,43.49
2018-06-25T11:35:51.826Z,41.28
2018-06-25T11:36:51.829Z,38.45
2018-06-25T11:37:51.830Z,37.09
2018-06-25T11:38:51.819Z,38.48
2018-06-25T11:39:51.816Z,37.02
2018-06-25T11:40:51.828Z,36.83
2018-06-25T11:41:51.897Z,38.10
2018-06-25T11:42:51.816Z,38.40
2018-06-25T11:43:51.812Z,37.32
2018-06-25T11:44:51.813Z,37.77
2018-06-25T11:45:51.806Z,39.12
2018-06-25T11:46:51.803Z,38.92
2018-06-25T11:47:51.803Z,38.06
2018-06-25T11:48:51.804Z,40.43
2018-06-25T11:49:51.803Z,38.45
2018-06-25T11:50:51.800Z,39.41
2018-06-25T11:51:51.800Z,40.97
2018-06-25T11:52:51.804Z,39.88
2018-06-25T11:53:51.796Z,40.56
2018-06-25T11:54:51.792Z,40.17
2018-06-25T11:55:51.789Z,39.86
2018-06-25T11:56:51.786Z,40.55
2018-06-25T11:57:51.785Z,40.06
2018-06-25T11:58:51.785Z,39.10
2018-06-25T11:59:51.781Z,39.61
2018-06-25T12:00:51.781Z,39.70
2018-06-25T12:01:51.781Z,39.43
2018-06-25T12:02:51.847Z,39.55
2018-06-25T12:03:51.778Z,38.30
2018-06-25T12:04:51.768Z,38.01
2018-06-25T12:05:51.766Z,37.99
2018-06-25T12:06:51.765Z,37.96
2018-06-25T12:07:51.765Z,37.75
2018-06-25T12:08:51.759Z,39.69
2018-06-25T12:09:51.756Z,38.51
2018-06-25T12:10:51.758Z,41.35
2018-06-25T12:11:51.763Z,40.58
2018-06-25T12:12:51.747Z,42.07
2018-06-25T12:13:51.746Z,38.79
2018-06-25T12:14:51.743Z,38.09
2018-06-25T12:15:51.740Z,37.30
2018-06-25T12:16:51.737Z,38.79
2018-06-25T12:17:51.736Z,40.76
2018-06-25T12:18:51.733Z,37.34
2018-06-25T12:19:51.846Z,37.22
2018-06-25T12:20:51.725Z,37.12
2018-06-25T12:21:51.722Z,39.26
2018-06-25T12:22:51.721Z,38.75
2018-06-25T12:23:51.718Z,40.01
2018-06-25T12:24:51.721Z,40.09
2018-06-25T12:25:51.713Z,39.31
2018-06-25T12:26:51.711Z,39.41
2018-06-25T12:27:51.759Z,39.61
2018-06-25T12:28:51.704Z,39.69
2018-06-25T12:29:51.699Z,40.48
2018-06-25T12:30:51.696Z,39.98
2018-06-25T12:31:51.702Z,40.06
2018-06-25T12:32:51.689Z,39.76
2018-06-25T12:33:51.686Z,40.64
2018-06-25T12:34:51.683Z,41.91
2018-06-25T12:35:51.683Z,40.64
2018-06-25T12:36:51.677Z,40.25
2018-06-25T12:37:51.751Z,40.55
2018-06-25T12:38:51.671Z,40.64
2018-06-25T12:39:51.679Z,41.13
2018-06-25T12:40:51.664Z,41.99
2018-06-25T12:41:51.664Z,40.72
2018-06-25T12:42:51.657Z,42.16
2018-06-25T12:43:51.658Z,40.89
2018-06-25T12:44:51.658Z,43.91
2018-06-25T12:45:51.644Z,43.43
2018-06-25T12:46:51.640Z,43.89
2018-06-25T12:47:51.639Z,43.40
2018-06-25T12:48:51.644Z,43.13
2018-06-25T12:49:51.631Z,42.94
2018-06-25T12:50:51.628Z,42.63
2018-06-25T12:51:51.623Z,43.40